createdAt,value
2024-05-09T00:00:35.304Z,100527.47
2024-05-09T00:01:33.692Z,100520.28
2024-05-09T00:02:36.594Z,100526.59
2024-05-09T00:03:41.378Z,100519.43
2024-05-09T00:04:44.264Z,100520.28
2024-05-09T00:05:48.160Z,100530.91
2024-05-09T00:06:51.119Z,100523.84
2024-05-09T00:07:54.359Z,100529.20
2024-05-09T00:08:57.530Z,100529.20
2024-05-09T00:10:00.349Z,100529.20
2024-05-09T00:11:04.274Z,100527.47
2024-05-09T00:12:07.215Z,100524.80
2024-05-09T00:13:11.388Z,100526.59
2024-05-09T00:14:14.191Z,100533.69
2024-05-09T00:15:16.844Z,100531.10
2024-05-09T00:16:20.277Z,100531.10
2024-05-09T00:17:23.287Z,100535.61
2024-05-09T00:18:26.371Z,100532.94
2024-05-09T00:19:29.513Z,100533.78
2024-05-09T00:20:38.019Z,100526.69
2024-05-09T00:21:44.886Z,100539.24
2024-05-09T00:22:49.204Z,100534.73
2024-05-09T00:23:52.386Z,100536.66
2024-05-09T00:24:55.103Z,100533.98
2024-05-09T00:25:57.930Z,100541.92
2024-05-09T00:27:00.926Z,100533.88
2024-05-09T00:28:07.113Z,100535.81
2024-05-09T00:29:10.903Z,100536.75
2024-05-09T00:30:21.022Z,100540.28
2024-05-09T00:31:18.279Z,100542.97
2024-05-09T00:32:21.190Z,100539.34
2024-05-09T00:33:24.264Z,100534.08
2024-05-09T00:34:27.862Z,100539.44
2024-05-09T00:35:30.786Z,100534.92
2024-05-09T00:36:33.591Z,100550.06
2024-05-09T00:37:36.597Z,100549.21
2024-05-09T00:38:39.588Z,100547.48
2024-05-09T00:39:42.283Z,100543.91
2024-05-09T00:40:45.807Z,100546.59
2024-05-09T00:41:48.829Z,100551.95
2024-05-09T00:42:51.695Z,100544.80
2024-05-09T00:43:55.744Z,100548.33
2024-05-09T00:44:58.322Z,100548.33
2024-05-09T00:46:01.424Z,100545.65
2024-05-09T00:47:04.207Z,100548.33
2024-05-09T00:48:08.845Z,100557.31
2024-05-09T00:49:11.940Z,100548.42
2024-05-09T00:50:19.302Z,100546.59
2024-05-09T00:51:20.158Z,100546.59
2024-05-09T00:52:23.421Z,100545.75
2024-05-09T00:53:26.698Z,100549.28
2024-05-09T00:54:29.364Z,100551.11
2024-05-09T00:55:35.752Z,100554.73
2024-05-09T00:56:38.616Z,100552.05
2024-05-09T00:57:42.966Z,100558.30
2024-05-09T00:58:47.207Z,100557.41
2024-05-09T00:59:50.614Z,100557.41
2024-05-09T01:00:54.708Z,100564.61
2024-05-09T01:01:58.039Z,100560.09
2024-05-09T01:03:01.605Z,100559.24
2024-05-09T01:04:05.019Z,100559.24
2024-05-09T01:05:07.733Z,100562.77
2024-05-09T01:06:11.638Z,100564.61
2024-05-09T01:07:14.406Z,100564.61
2024-05-09T01:08:17.310Z,100565.45
2024-05-09T01:09:20.615Z,100561.92
2024-05-09T01:10:32.195Z,100560.19
2024-05-09T01:11:35.067Z,100564.61
2024-05-09T01:12:38.198Z,100564.61
2024-05-09T01:13:40.809Z,100567.28
2024-05-09T01:14:43.577Z,100564.61
2024-05-09T01:15:47.434Z,100557.51
2024-05-09T01:16:51.438Z,100557.51
2024-05-09T01:17:55.962Z,100560.19
2024-05-09T01:18:59.146Z,100563.82
2024-05-09T01:20:02.321Z,100557.51
2024-05-09T01:21:07.203Z,100558.55
2024-05-09T01:22:09.916Z,100558.55
2024-05-09T01:23:15.143Z,100559.44
2024-05-09T01:24:17.964Z,100570.16
2024-05-09T01:25:22.510Z,100570.16
2024-05-09T01:26:25.302Z,100564.80
2024-05-09T01:27:30.051Z,100561.23
2024-05-09T01:28:32.932Z,100563.91
2024-05-09T01:29:35.920Z,100565.75
2024-05-09T01:30:39.802Z,100576.47
2024-05-09T01:31:45.387Z,100566.69
2024-05-09T01:32:48.272Z,100570.25
2024-05-09T01:33:51.965Z,100567.57
2024-05-09T01:34:55.003Z,100567.57
2024-05-09T01:35:58.050Z,100560.48
2024-05-09T01:37:01.141Z,100564.95
2024-05-09T01:38:04.464Z,100563.16
2024-05-09T01:39:08.222Z,100562.28
2024-05-09T01:40:15.300Z,100567.64
2024-05-09T01:41:16.551Z,100570.31
2024-05-09T01:42:19.116Z,100574.83
2024-05-09T01:43:22.081Z,100564.95
2024-05-09T01:44:25.552Z,100575.67
2024-05-09T01:45:28.126Z,100576.66
2024-05-09T01:46:30.967Z,100573.98
2024-05-09T01:47:33.835Z,100575.77
2024-05-09T01:48:36.876Z,100568.62
2024-05-09T01:49:39.729Z,100572.25
2024-05-09T01:50:43.368Z,100569.56
2024-05-09T01:51:46.375Z,100576.66
2024-05-09T01:52:49.121Z,100575.77
2024-05-09T01:53:53.888Z,100570.41
2024-05-09T01:54:56.591Z,100573.09
2024-05-09T01:55:59.406Z,100581.13
2024-05-09T01:57:02.402Z,100572.25
2024-05-09T01:58:06.455Z,100573.09
2024-05-09T01:59:10.040Z,100573.19
2024-05-09T02:00:22.123Z,100574.07
2024-05-09T02:01:19.058Z,100572.25
2024-05-09T02:02:22.019Z,100576.75
2024-05-09T02:03:24.839Z,100579.44
2024-05-09T02:04:27.919Z,100576.75
2024-05-09T02:05:30.847Z,100582.11
2024-05-09T02:06:41.712Z,100585.64
2024-05-09T02:07:44.658Z,100585.73
2024-05-09T02:08:47.594Z,100584.79
2024-05-09T02:09:53.982Z,100585.73
2024-05-09T02:10:57.115Z,100583.06
2024-05-09T02:12:01.206Z,100582.20
2024-05-09T02:13:06.970Z,100594.72
2024-05-09T02:14:10.767Z,100582.20
2024-05-09T02:15:14.617Z,100592.05
2024-05-09T02:16:17.315Z,100591.19
2024-05-09T02:17:20.051Z,100592.99
2024-05-09T02:18:23.681Z,100592.99
2024-05-09T02:19:27.932Z,100591.19
2024-05-09T02:20:36.116Z,100597.41
2024-05-09T02:21:36.301Z,100601.03
2024-05-09T02:22:38.968Z,100601.03
2024-05-09T02:23:41.631Z,100607.27
2024-05-09T02:24:44.342Z,100601.03
2024-05-09T02:25:47.100Z,100602.86
2024-05-09T02:26:50.015Z,100609.07
2024-05-09T02:27:52.648Z,100608.12
2024-05-09T02:28:55.446Z,100611.69
2024-05-09T02:29:58.245Z,100605.45
2024-05-09T02:31:01.300Z,100613.48
2024-05-09T02:32:05.189Z,100606.23
2024-05-09T02:33:09.884Z,100606.23
2024-05-09T02:34:13.411Z,100608.03
2024-05-09T02:35:16.362Z,100609.77
2024-05-09T02:36:19.636Z,100610.61
2024-05-09T02:37:23.352Z,100615.12
2024-05-09T02:38:26.821Z,100606.14
2024-05-09T02:39:30.465Z,100615.03
2024-05-09T02:40:37.338Z,100615.88
2024-05-09T02:41:38.116Z,100620.30
2024-05-09T02:42:41.118Z,100623.86
2024-05-09T02:43:44.386Z,100625.56
2024-05-09T02:44:47.903Z,100630.06
2024-05-09T02:45:50.658Z,100623.76
2024-05-09T02:46:54.902Z,100624.89
2024-05-09T02:47:58.020Z,100624.89
2024-05-09T02:49:01.914Z,100632.66
2024-05-09T02:50:08.099Z,100626.34
2024-05-09T02:51:11.747Z,100631.70
2024-05-09T02:52:17.332Z,100633.44
2024-05-09T02:53:20.013Z,100626.25
2024-05-09T02:54:22.675Z,100625.40
2024-05-09T02:55:28.045Z,100626.25
2024-05-09T02:56:31.235Z,100628.94
2024-05-09T02:57:33.796Z,100620.89
2024-05-09T02:58:36.761Z,100633.34
2024-05-09T02:59:40.008Z,100633.34
2024-05-09T03:00:43.266Z,100632.46
2024-05-09T03:01:47.063Z,100633.34
2024-05-09T03:02:49.954Z,100636.02
2024-05-09T03:03:53.723Z,100640.50
2024-05-09T03:04:56.530Z,100643.09
2024-05-09T03:05:59.110Z,100642.23
2024-05-09T03:07:02.008Z,100643.09
2024-05-09T03:08:05.761Z,100647.59
2024-05-09T03:09:09.756Z,100651.13
2024-05-09T03:10:21.936Z,100645.77
2024-05-09T03:11:25.731Z,100651.13
2024-05-09T03:12:28.634Z,100656.48
2024-05-09T03:13:31.301Z,100653.81
2024-05-09T03:14:33.821Z,100654.70
2024-05-09T03:15:36.402Z,100656.48
2024-05-09T03:16:39.363Z,100659.27
2024-05-09T03:17:42.238Z,100655.64
2024-05-09T03:18:45.215Z,100653.81
2024-05-09T03:19:49.237Z,100652.96
2024-05-09T03:20:53.288Z,100655.55
2024-05-09T03:21:56.059Z,100657.47
2024-05-09T03:22:58.726Z,100662.73
2024-05-09T03:24:01.369Z,100661.84
2024-05-09T03:25:05.408Z,100656.48
2024-05-09T03:26:14.542Z,100656.48
2024-05-09T03:27:19.797Z,100660.05
2024-05-09T03:28:22.680Z,100655.55
2024-05-09T03:29:25.680Z,100662.64
2024-05-09T03:30:38.366Z,100655.55
2024-05-09T03:31:34.091Z,100659.95
2024-05-09T03:32:37.590Z,100655.45
2024-05-09T03:33:41.241Z,100660.72
2024-05-09T03:34:44.150Z,100660.72
2024-05-09T03:35:47.528Z,100663.40
2024-05-09T03:36:50.867Z,100657.94
2024-05-09T03:37:54.523Z,100657.94
2024-05-09T03:38:58.249Z,100662.36
2024-05-09T03:40:02.087Z,100661.50
2024-05-09T03:41:05.543Z,100663.23
2024-05-09T03:42:08.757Z,100659.58
2024-05-09T03:43:12.756Z,100659.58
2024-05-09T03:44:15.487Z,100665.83
2024-05-09T03:45:18.187Z,100659.58
2024-05-09T03:46:21.366Z,100656.90
2024-05-09T03:47:24.330Z,100664.00
2024-05-09T03:48:27.608Z,100664.00
2024-05-09T03:49:30.561Z,100663.14
2024-05-09T03:50:35.987Z,100668.50
2024-05-09T03:51:38.924Z,100665.83
2024-05-09T03:52:42.281Z,100667.63
2024-05-09T03:53:46.805Z,100658.73
2024-05-09T03:54:50.200Z,100667.63
2024-05-09T03:55:53.123Z,100665.92
2024-05-09T03:56:57.707Z,100665.03
2024-05-09T03:58:00.866Z,100666.86
2024-05-09T03:59:04.525Z,100671.34
2024-05-09T04:00:17.673Z,100669.55
2024-05-09T04:01:18.535Z,100668.66
2024-05-09T04:02:21.630Z,100673.17
2024-05-09T04:03:25.016Z,100671.34
2024-05-09T04:04:28.277Z,100667.81
2024-05-09T04:05:32.194Z,100674.91
2024-05-09T04:06:35.240Z,100668.66
2024-05-09T04:07:37.969Z,100665.13
2024-05-09T04:08:40.583Z,100676.80
2024-05-09T04:09:44.936Z,100676.80
2024-05-09T04:10:49.331Z,100673.27
2024-05-09T04:11:52.450Z,100676.05
2024-05-09T04:12:56.318Z,100679.67
2024-05-09T04:14:01.020Z,100681.59
2024-05-09T04:15:04.068Z,100673.70
2024-05-09T04:16:09.372Z,100675.53
2024-05-09T04:17:12.044Z,100685.41
2024-05-09T04:18:17.036Z,100677.70
2024-05-09T04:19:20.109Z,100683.53
2024-05-09T04:20:33.675Z,100677.28
2024-05-09T04:21:29.355Z,100681.80
2024-05-09T04:22:32.096Z,100684.38
2024-05-09T04:23:35.061Z,100686.12
2024-05-09T04:24:39.657Z,100681.52
2024-05-09T04:25:43.582Z,100680.57
2024-05-09T04:26:47.356Z,100675.12
2024-05-09T04:27:52.203Z,100682.30
2024-05-09T04:29:01.516Z,100681.36
2024-05-09T04:30:07.885Z,100688.42
2024-05-09T04:31:09.790Z,100683.95
2024-05-09T04:32:13.114Z,100686.53
2024-05-09T04:33:18.647Z,100683.86
2024-05-09T04:34:21.576Z,100690.06
2024-05-09T04:35:24.930Z,100689.97
2024-05-09T04:36:28.507Z,100683.77
2024-05-09T04:37:32.150Z,100691.71
2024-05-09T04:38:36.266Z,100682.73
2024-05-09T04:39:39.323Z,100682.73
2024-05-09T04:40:42.929Z,100687.11
2024-05-09T04:41:45.715Z,100688.84
2024-05-09T04:42:48.420Z,100685.22
2024-05-09T04:43:51.197Z,100686.06
2024-05-09T04:44:58.289Z,100689.63
2024-05-09T04:46:01.206Z,100692.22
2024-05-09T04:47:05.130Z,100695.75
2024-05-09T04:48:08.969Z,100692.22
2024-05-09T04:49:12.096Z,100696.63
2024-05-09T04:50:24.642Z,100695.66
2024-05-09T04:51:21.076Z,100694.71
2024-05-09T04:52:23.900Z,100690.20
2024-05-09T04:53:27.612Z,100694.71
2024-05-09T04:54:36.072Z,100697.30
2024-05-09T04:55:36.554Z,100692.79
2024-05-09T04:56:39.833Z,100705.25
2024-05-09T04:57:43.036Z,100698.09
2024-05-09T04:58:47.092Z,100695.41
2024-05-09T04:59:50.340Z,100698.94
2024-05-09T05:00:55.199Z,100693.58
2024-05-09T05:02:00.344Z,100697.11
2024-05-09T05:03:07.546Z,100700.77
2024-05-09T05:04:10.837Z,100700.77
2024-05-09T05:05:13.676Z,100703.45
2024-05-09T05:06:16.519Z,100703.45
2024-05-09T05:07:20.867Z,100705.16
2024-05-09T05:08:24.386Z,100703.45
2024-05-09T05:09:28.279Z,100701.63
2024-05-09T05:10:36.066Z,100702.47
2024-05-09T05:11:36.210Z,100706.13
2024-05-09T05:12:57.551Z,100704.30
2024-05-09T05:14:00.579Z,100705.16
2024-05-09T05:15:03.748Z,100710.52
2024-05-09T05:16:07.347Z,100706.98
2024-05-09T05:17:10.796Z,100698.09
2024-05-09T05:18:15.461Z,100702.56
2024-05-09T05:19:18.643Z,100706.13
2024-05-09T05:20:27.800Z,100701.72
2024-05-09T05:21:26.524Z,100701.72
2024-05-09T05:22:29.427Z,100709.76
2024-05-09T05:23:33.015Z,100710.61
2024-05-09T05:24:35.861Z,100707.08
2024-05-09T05:25:39.552Z,100708.02
2024-05-09T05:26:42.655Z,100718.65
2024-05-09T05:27:45.485Z,100712.44
2024-05-09T05:28:48.210Z,100716.91
2024-05-09T05:29:50.996Z,100716.06
2024-05-09T05:30:54.874Z,100716.91
2024-05-09T05:31:58.639Z,100716.91
2024-05-09T05:33:02.840Z,100719.59
2024-05-09T05:34:05.588Z,100718.74
2024-05-09T05:35:08.685Z,100726.78
2024-05-09T05:36:11.317Z,100724.95
2024-05-09T05:37:14.349Z,100703.19
2024-05-09T05:38:17.023Z,100703.19
2024-05-09T05:39:19.664Z,100727.64
2024-05-09T05:40:32.115Z,100728.52
2024-05-09T05:41:27.580Z,100727.64
2024-05-09T05:42:31.010Z,100724.02
2024-05-09T05:43:33.655Z,100724.11
2024-05-09T05:44:36.884Z,100724.95
2024-05-09T05:45:40.212Z,100717.80
2024-05-09T05:46:43.896Z,100722.27
2024-05-09T05:47:47.823Z,100722.27
2024-05-09T05:48:50.707Z,100728.62
2024-05-09T05:49:53.715Z,100729.47
2024-05-09T05:51:02.689Z,100730.31
2024-05-09T05:52:05.570Z,100733.00
2024-05-09T05:53:09.865Z,100733.88
2024-05-09T05:54:13.596Z,100728.52
2024-05-09T05:55:16.929Z,100726.78
2024-05-09T05:56:19.982Z,100727.64
2024-05-09T05:57:24.205Z,100726.78
2024-05-09T05:58:28.164Z,100728.52
2024-05-09T05:59:31.296Z,100728.52
2024-05-09T06:00:39.199Z,100729.47
2024-05-09T06:01:40.715Z,100727.64
2024-05-09T06:02:43.570Z,100731.30
2024-05-09T06:03:46.827Z,100728.62
2024-05-09T06:04:50.868Z,100731.30
2024-05-09T06:05:54.754Z,100725.94
2024-05-09T06:06:57.713Z,100723.25
2024-05-09T06:08:00.452Z,100724.11
2024-05-09T06:09:03.602Z,100725.05
2024-05-09T06:10:14.238Z,100726.78
2024-05-09T06:11:12.241Z,100728.62
2024-05-09T06:12:15.075Z,100727.73
2024-05-09T06:13:20.246Z,100724.11
2024-05-09T06:14:23.114Z,100733.09
2024-05-09T06:15:26.165Z,100714.42
2024-05-09T06:16:29.806Z,100726.88
2024-05-09T06:17:32.784Z,100726.88
2024-05-09T06:18:36.292Z,100732.23
2024-05-09T06:19:39.178Z,100729.66
2024-05-09T06:20:43.801Z,100729.66
2024-05-09T06:21:46.937Z,100729.56
2024-05-09T06:22:49.986Z,100726.88
2024-05-09T06:23:54.079Z,100733.19
2024-05-09T06:24:56.965Z,100730.50
2024-05-09T06:26:00.519Z,100726.13
2024-05-09T06:27:05.461Z,100726.97
2024-05-09T06:28:09.475Z,100732.33
2024-05-09T06:29:13.649Z,100723.44
2024-05-09T06:30:25.494Z,100736.84
2024-05-09T06:31:23.891Z,100731.48
2024-05-09T06:32:26.777Z,100731.48
2024-05-09T06:33:30.757Z,100728.80
2024-05-09T06:34:33.749Z,100733.28
2024-05-09T06:35:37.649Z,100726.13
2024-05-09T06:36:41.183Z,100731.48
2024-05-09T06:37:43.919Z,100722.55
2024-05-09T06:38:47.520Z,100728.80
2024-05-09T06:39:50.558Z,100734.16
2024-05-09T06:40:56.731Z,100729.75
2024-05-09T06:41:59.284Z,100739.52
2024-05-09T06:43:01.841Z,100730.59
2024-05-09T06:44:04.914Z,100735.95
2024-05-09T06:45:07.747Z,100727.92
2024-05-09T06:46:11.200Z,100731.48
2024-05-09T06:47:14.875Z,100728.80
2024-05-09T06:48:19.034Z,100735.95
2024-05-09T06:49:22.398Z,100729.75
2024-05-09T06:50:28.704Z,100730.59
2024-05-09T06:51:30.711Z,100729.75
2024-05-09T06:52:33.454Z,100731.55
2024-05-09T06:53:38.390Z,100736.91
2024-05-09T06:54:41.147Z,100731.55
2024-05-09T06:55:44.090Z,100733.28
2024-05-09T06:56:46.832Z,100734.22
2024-05-09T06:57:49.559Z,100735.95
2024-05-09T06:58:54.952Z,100738.73
2024-05-09T06:59:59.994Z,100736.91
2024-05-09T07:01:04.777Z,100733.37
2024-05-09T07:02:07.602Z,100736.05
2024-05-09T07:03:15.285Z,100737.79
2024-05-09T07:04:17.763Z,100739.58
2024-05-09T07:05:20.854Z,100736.91
2024-05-09T07:06:24.307Z,100728.86
2024-05-09T07:07:27.490Z,100729.75
2024-05-09T07:08:31.181Z,100723.50
2024-05-09T07:09:33.933Z,100731.55
2024-05-09T07:10:37.695Z,100731.55
2024-05-09T07:11:40.817Z,100730.69
2024-05-09T07:12:43.805Z,100733.37
2024-05-09T07:13:46.437Z,100739.67
2024-05-09T07:14:49.376Z,100734.22
2024-05-09T07:15:52.087Z,100732.52
2024-05-09T07:16:55.563Z,100738.73
2024-05-09T07:17:58.864Z,100734.31
2024-05-09T07:19:02.950Z,100734.31
2024-05-09T07:20:09.014Z,100726.27
2024-05-09T07:21:12.200Z,100728.10
2024-05-09T07:22:16.091Z,100736.99
2024-05-09T07:23:19.058Z,100739.67
2024-05-09T07:24:21.924Z,100734.31
2024-05-09T07:25:26.827Z,100729.93
2024-05-09T07:26:29.808Z,100733.46
2024-05-09T07:27:33.669Z,100734.41
2024-05-09T07:28:36.425Z,100740.66
2024-05-09T07:29:40.391Z,100740.66
2024-05-09T07:30:44.481Z,100730.88
2024-05-09T07:31:47.219Z,100734.41
2024-05-09T07:32:49.969Z,100735.30
2024-05-09T07:33:54.087Z,100733.55
2024-05-09T07:34:57.027Z,100740.71
2024-05-09T07:36:01.210Z,100734.41
2024-05-09T07:37:06.004Z,100727.31
2024-05-09T07:38:08.800Z,100729.99
2024-05-09T07:39:12.116Z,100731.82
2024-05-09T07:40:24.813Z,100735.35
2024-05-09T07:41:20.661Z,100729.99
2024-05-09T07:42:24.018Z,100732.67
2024-05-09T07:43:27.329Z,100737.18
2024-05-09T07:44:30.390Z,100729.14
2024-05-09T07:47:47.312Z,100727.31
2024-05-09T07:53:00.900Z,100722.84
2024-05-09T07:53:37.191Z,100726.45
2024-05-09T07:54:16.943Z,100722.05
2024-05-09T07:55:22.183Z,100726.45
2024-05-09T07:56:27.445Z,100734.50
2024-05-09T07:57:31.205Z,100727.31
2024-05-09T07:58:34.119Z,100730.97
2024-05-09T07:59:38.165Z,100725.61
2024-05-09T08:00:41.587Z,100728.29
2024-05-09T08:01:45.763Z,100728.29
2024-05-09T08:02:48.537Z,100725.61
2024-05-09T08:03:51.962Z,100722.92
2024-05-09T08:04:54.855Z,100728.29
2024-05-09T08:05:57.633Z,100725.61
2024-05-09T08:07:00.649Z,100728.29
2024-05-09T08:08:04.415Z,100731.82
2024-05-09T08:09:11.008Z,100722.92
2024-05-09T08:10:18.726Z,100737.18
2024-05-09T08:11:19.982Z,100725.61
2024-05-09T08:12:23.984Z,100730.08
2024-05-09T08:13:27.278Z,100733.65
2024-05-09T08:14:31.306Z,100724.72
2024-05-09T08:15:34.020Z,100731.91
2024-05-09T08:16:37.199Z,100733.73
2024-05-09T08:17:40.511Z,100725.70
2024-05-09T08:18:44.731Z,100723.02
2024-05-09T08:19:48.867Z,100720.34
2024-05-09T08:20:51.711Z,100728.38
2024-05-09T08:21:54.347Z,100723.02
2024-05-09T08:22:57.943Z,100708.31
2024-05-09T08:24:01.887Z,100721.19
2024-05-09T08:25:05.389Z,100723.88
2024-05-09T08:26:09.680Z,100724.72
2024-05-09T08:27:12.392Z,100724.72
2024-05-09T08:28:15.149Z,100723.02
2024-05-09T08:29:18.177Z,100723.02
2024-05-09T08:30:29.053Z,100723.88
2024-05-09T08:31:25.906Z,100722.05
2024-05-09T08:32:31.971Z,100715.83
2024-05-09T08:33:35.251Z,100718.52
2024-05-09T08:34:40.001Z,100718.52
2024-05-09T08:35:42.560Z,100718.52
2024-05-09T08:36:45.503Z,100721.19
2024-05-09T08:37:49.394Z,100718.52
2024-05-09T08:38:52.230Z,100716.69
2024-05-09T08:39:55.900Z,100713.16
2024-05-09T08:40:59.819Z,100714.98
2024-05-09T08:42:02.882Z,100713.16
2024-05-09T08:43:08.264Z,100706.94
2024-05-09T08:44:11.811Z,100709.62
2024-05-09T08:45:14.949Z,100709.62
2024-05-09T08:46:18.515Z,100710.47
2024-05-09T08:47:21.654Z,100709.62
2024-05-09T08:48:25.811Z,100705.11
2024-05-09T08:49:30.265Z,100704.26
2024-05-09T08:50:38.827Z,100696.22
2024-05-09T08:51:38.999Z,100698.02
2024-05-09T08:52:42.500Z,100697.07
2024-05-09T08:53:45.482Z,100698.02
2024-05-09T08:54:49.936Z,100692.66
2024-05-09T08:55:53.345Z,100693.54
2024-05-09T08:56:57.043Z,100703.38
2024-05-09T08:58:00.793Z,100692.66
2024-05-09T08:59:03.456Z,100695.34
2024-05-09T09:00:12.537Z,100689.97
2024-05-09T09:01:13.089Z,100691.80
2024-05-09T09:02:17.134Z,100691.80
2024-05-09T09:03:22.193Z,100691.80
2024-05-09T09:04:24.978Z,100693.59
2024-05-09T09:05:30.425Z,100687.30
2024-05-09T09:06:33.417Z,100686.44
2024-05-09T09:07:39.628Z,100688.23
2024-05-09T09:08:43.412Z,100690.92
2024-05-09T09:09:46.599Z,100688.23
2024-05-09T09:10:51.467Z,100686.53
2024-05-09T09:11:55.010Z,100682.03
2024-05-09T09:12:58.908Z,100681.17
2024-05-09T09:14:01.581Z,100676.66
2024-05-09T09:15:05.289Z,100687.39
2024-05-09T09:16:09.083Z,100686.53
2024-05-09T09:17:15.961Z,100684.70
2024-05-09T09:18:19.453Z,100683.86
2024-05-09T09:19:22.818Z,100674.84
2024-05-09T09:20:34.087Z,100679.34
2024-05-09T09:21:31.232Z,100682.88
2024-05-09T09:22:34.688Z,100680.20
2024-05-09T09:23:41.101Z,100676.66
2024-05-09T09:24:44.090Z,100688.23
2024-05-09T09:25:46.919Z,100682.03
2024-05-09T09:26:49.622Z,100674.84
2024-05-09T09:27:52.317Z,100677.52
2024-05-09T09:29:02.797Z,100677.52
2024-05-09T09:30:15.600Z,100666.80
2024-05-09T09:31:12.956Z,100669.48
2024-05-09T09:32:15.718Z,100659.64
2024-05-09T09:33:19.924Z,100673.98
2024-05-09T09:34:29.193Z,100669.48
2024-05-09T09:35:32.298Z,100664.12
2024-05-09T09:36:35.805Z,100665.09
2024-05-09T09:37:38.505Z,100659.73
2024-05-09T09:38:42.980Z,100665.95
2024-05-09T09:39:48.890Z,100673.14
2024-05-09T09:40:50.831Z,100665.95
2024-05-09T09:41:55.963Z,100657.05
2024-05-09T09:42:58.815Z,100659.73
2024-05-09T09:44:02.048Z,100665.09
2024-05-09T09:45:05.981Z,100668.72
2024-05-09T09:46:12.332Z,100665.09
2024-05-09T09:47:13.640Z,100687.39
2024-05-09T09:48:17.467Z,100670.45
2024-05-09T09:49:20.294Z,100670.45
2024-05-09T09:50:31.710Z,100673.14
2024-05-09T09:51:28.581Z,100670.45
2024-05-09T09:52:31.671Z,100669.57
2024-05-09T09:53:35.006Z,100670.45
2024-05-09T09:54:37.816Z,100663.27
2024-05-09T09:55:40.857Z,100660.68
2024-05-09T09:56:49.011Z,100657.05
2024-05-09T09:57:52.523Z,100663.27
2024-05-09T09:58:55.526Z,100662.41
2024-05-09T09:59:58.376Z,100665.09
2024-05-09T10:01:02.278Z,100665.09
2024-05-09T10:02:08.050Z,100657.91
2024-05-09T10:03:11.934Z,100654.28
2024-05-09T10:04:17.262Z,100650.72
2024-05-09T10:05:20.802Z,100657.81
2024-05-09T10:06:23.759Z,100654.28
2024-05-09T10:07:27.778Z,100648.32
2024-05-09T10:08:30.429Z,100648.32
2024-05-09T10:09:34.049Z,100653.40
2024-05-09T10:10:37.329Z,100654.28
2024-05-09T10:11:45.386Z,100655.13
2024-05-09T10:12:48.814Z,100649.77
2024-05-09T10:13:54.432Z,100651.51
2024-05-09T10:14:57.623Z,100650.66
2024-05-09T10:16:04.272Z,100653.24
2024-05-09T10:17:07.026Z,100654.19
2024-05-09T10:18:11.274Z,100642.61
2024-05-09T10:19:27.325Z,100652.45
2024-05-09T10:20:43.536Z,100650.66
2024-05-09T10:21:47.556Z,100650.66
2024-05-09T10:22:50.307Z,100653.34
2024-05-09T10:23:59.137Z,100652.45
2024-05-09T10:25:06.626Z,100654.28
2024-05-09T10:26:09.506Z,100659.64
2024-05-09T10:27:12.418Z,100653.40
2024-05-09T10:28:15.422Z,100648.04
2024-05-09T10:29:18.948Z,100650.72
2024-05-09T10:30:29.813Z,100651.60
2024-05-09T10:31:29.006Z,100648.04
2024-05-09T10:32:39.869Z,100648.04
2024-05-09T10:33:49.953Z,100648.04
2024-05-09T10:35:11.637Z,100645.36
2024-05-09T10:36:22.069Z,100642.77
2024-05-09T10:37:28.803Z,100641.83
2024-05-09T10:38:31.761Z,100645.45
2024-05-09T10:39:35.451Z,100640.09
2024-05-09T10:40:38.373Z,100627.67
2024-05-09T10:41:41.830Z,100630.35
2024-05-09T10:42:45.049Z,100637.51
2024-05-09T10:43:47.820Z,100636.66
2024-05-09T10:44:52.618Z,100628.52
2024-05-09T10:45:55.776Z,100627.77
2024-05-09T10:46:58.648Z,100631.30
2024-05-09T10:48:01.617Z,100629.47
2024-05-09T10:49:07.269Z,100633.03
2024-05-09T10:50:18.360Z,100613.39
2024-05-09T10:51:14.335Z,100626.79
2024-05-09T10:52:21.499Z,100629.47
2024-05-09T10:53:24.069Z,100629.47
2024-05-09T10:54:38.472Z,100630.45
2024-05-09T10:55:42.024Z,100619.72
2024-05-09T10:56:44.803Z,100630.45
2024-05-09T10:57:47.646Z,100638.48
2024-05-09T10:58:51.494Z,100627.26
2024-05-09T10:59:55.228Z,100632.34
2024-05-09T11:00:59.688Z,100626.98
2024-05-09T11:02:04.376Z,100627.92
2024-05-09T11:03:09.816Z,100624.48
2024-05-09T11:04:13.296Z,100627.92
2024-05-09T11:05:16.829Z,100623.54
2024-05-09T11:06:20.932Z,100627.92
2024-05-09T11:07:23.750Z,100621.80
2024-05-09T11:08:26.619Z,100620.86
2024-05-09T11:09:31.594Z,100618.24
2024-05-09T11:10:34.957Z,100615.56
2024-05-09T11:11:38.069Z,100626.28
2024-05-09T11:12:46.460Z,100626.28
2024-05-09T11:13:49.393Z,100614.71
2024-05-09T11:14:56.061Z,100613.77
2024-05-09T11:15:59.566Z,100626.28
2024-05-09T11:17:05.491Z,100617.39
2024-05-09T11:18:13.458Z,100622.75
2024-05-09T11:19:19.407Z,100627.26
2024-05-09T11:20:29.321Z,100610.30
2024-05-09T11:21:28.705Z,100617.48
2024-05-09T11:22:34.388Z,100612.12
2024-05-09T11:23:39.442Z,100616.64
2024-05-09T11:24:42.397Z,100612.98
2024-05-09T11:25:52.227Z,100616.54
2024-05-09T11:26:59.322Z,100605.91
2024-05-09T11:28:04.718Z,100614.80
2024-05-09T11:29:07.473Z,100610.30
2024-05-09T11:30:26.789Z,100614.80
2024-05-09T11:31:24.409Z,100608.50
2024-05-09T11:32:28.675Z,100602.26
2024-05-09T11:33:32.362Z,100612.03
2024-05-09T11:34:36.287Z,100597.78
2024-05-09T11:35:38.922Z,100612.03
2024-05-09T11:36:42.685Z,100610.30
2024-05-09T11:37:47.103Z,100612.03
2024-05-09T11:38:49.872Z,100614.80
2024-05-09T11:39:59.149Z,100603.14
2024-05-09T11:41:02.691Z,100596.91
2024-05-09T11:42:05.570Z,100612.03
2024-05-09T11:43:09.180Z,100595.10
2024-05-09T11:44:12.584Z,100603.99
2024-05-09T11:45:16.064Z,100601.31
2024-05-09T11:46:19.392Z,100616.45
2024-05-09T11:47:22.123Z,100599.58
2024-05-09T11:48:25.467Z,100598.64
2024-05-09T11:49:28.359Z,100599.58
2024-05-09T11:50:35.432Z,100603.99
2024-05-09T11:51:36.398Z,100598.73
2024-05-09T11:52:41.766Z,100592.42
2024-05-09T11:53:45.009Z,100592.42
2024-05-09T11:54:47.834Z,100598.73
2024-05-09T11:55:50.449Z,100621.91
2024-05-09T11:56:55.200Z,100590.59
2024-05-09T11:57:58.316Z,100590.59
2024-05-09T11:59:01.779Z,100611.18
2024-05-09T12:00:09.412Z,100585.42
2024-05-09T12:01:11.254Z,100597.88
2024-05-09T12:02:13.940Z,100589.94
2024-05-09T12:03:16.956Z,100590.78
2024-05-09T12:04:19.706Z,100604.19
2024-05-09T12:05:23.121Z,100599.77
2024-05-09T12:06:26.967Z,100597.97
2024-05-09T12:07:30.104Z,100591.73
2024-05-09T12:08:33.936Z,100582.84
2024-05-09T12:09:36.470Z,100590.88
2024-05-09T12:10:39.532Z,100597.09
2024-05-09T12:11:43.152Z,100607.81
2024-05-09T12:12:46.354Z,100593.56
2024-05-09T12:13:49.126Z,100594.41
2024-05-09T12:14:52.775Z,100590.00